createdAt,value
2022-09-22T00:02:36.972Z,99.90
2022-09-22T00:07:38.717Z,99.90
2022-09-22T00:12:40.456Z,99.90
2022-09-22T00:17:42.703Z,99.90
2022-09-22T00:22:44.475Z,99.90
2022-09-22T00:27:46.359Z,99.90
2022-09-22T00:32:48.111Z,99.90
2022-09-22T00:37:49.891Z,99.90
2022-09-22T00:42:51.612Z,99.90
2022-09-22T00:47:53.512Z,99.90
2022-09-22T00:52:58.909Z,99.90
2022-09-22T00:58:02.704Z,99.90
2022-09-22T01:03:09.082Z,99.90
2022-09-22T01:08:12.037Z,99.90
2022-09-22T01:13:40.424Z,99.90
2022-09-22T01:18:49.055Z,99.90
2022-09-22T01:24:18.183Z,99.90
2022-09-22T01:29:42.904Z,99.90
2022-09-22T01:34:56.945Z,99.90
2022-09-22T01:40:05.735Z,99.90
2022-09-22T01:45:16.283Z,99.90
2022-09-22T01:50:28.953Z,99.90
2022-09-22T01:55:35.556Z,99.90
2022-09-22T02:00:40.822Z,99.90
2022-09-22T02:05:47.262Z,99.90
2022-09-22T02:10:49.966Z,99.90
2022-09-22T02:16:01.204Z,99.90
2022-09-22T02:21:04.667Z,99.90
2022-09-22T02:26:08.360Z,99.90
2022-09-22T02:31:20.079Z,99.90
2022-09-22T02:36:40.332Z,99.90
2022-09-22T02:42:05.238Z,99.90
2022-09-22T02:47:13.679Z,99.90
2022-09-22T02:52:18.686Z,99.90
2022-09-22T02:57:20.967Z,99.90
2022-09-22T03:02:22.713Z,99.90
2022-09-22T03:07:24.459Z,99.90
2022-09-22T03:12:26.180Z,99.90
2022-09-22T03:17:27.905Z,99.90
2022-09-22T03:22:29.619Z,99.90
2022-09-22T03:27:31.386Z,99.90
2022-09-22T03:32:33.353Z,99.90
2022-09-22T03:37:35.164Z,99.90
2022-09-22T03:42:36.928Z,99.90
2022-09-22T03:47:38.928Z,99.90
2022-09-22T03:52:43.025Z,99.90
2022-09-22T03:57:45.114Z,99.90
2022-09-22T04:02:46.938Z,99.90
2022-09-22T04:07:48.858Z,99.90
2022-09-22T04:12:50.646Z,99.90
2022-09-22T04:17:52.355Z,99.90
2022-09-22T04:22:54.101Z,99.90
2022-09-22T04:27:55.908Z,99.90
2022-09-22T04:32:59.662Z,99.90
2022-09-22T04:38:01.666Z,99.90
2022-09-22T04:43:03.605Z,99.90
2022-09-22T04:48:05.747Z,99.90
2022-09-22T04:53:07.947Z,99.90
2022-09-22T04:58:09.940Z,99.90
2022-09-22T05:03:19.920Z,99.90
2022-09-22T05:08:24.110Z,99.90
2022-09-22T05:13:25.964Z,99.90
2022-09-22T05:18:27.683Z,99.90
2022-09-22T05:23:29.610Z,99.90
2022-09-22T05:28:31.332Z,99.90
2022-09-22T05:33:33.076Z,99.90
2022-09-22T05:38:34.760Z,99.90
2022-09-22T05:43:37.160Z,99.90
2022-09-22T05:48:38.926Z,99.90
2022-09-22T05:53:40.861Z,99.90
2022-09-22T05:58:42.582Z,99.90
2022-09-22T06:03:44.407Z,99.90
2022-09-22T06:08:48.842Z,99.90
2022-09-22T06:13:51.098Z,99.90
2022-09-22T06:18:52.803Z,99.90
2022-09-22T06:23:57.560Z,99.90
2022-09-22T06:28:59.316Z,99.90
2022-09-22T06:34:04.323Z,99.90
2022-09-22T06:39:10.563Z,99.90
2022-09-22T06:44:12.609Z,98.70
2022-09-22T06:49:14.425Z,75.00
2022-09-22T06:54:16.158Z,63.20
2022-09-22T06:59:17.987Z,58.10
2022-09-22T07:04:20.033Z,56.40
2022-09-22T07:09:22.023Z,51.70
2022-09-22T07:14:25.476Z,47.20
2022-09-22T07:19:27.219Z,47.70
2022-09-22T07:24:28.954Z,45.30
2022-09-22T07:29:30.910Z,40.70
2022-09-22T07:34:32.891Z,40.00
2022-09-22T07:39:34.653Z,38.70
2022-09-22T07:44:54.846Z,37.20
2022-09-22T07:49:56.651Z,39.10
2022-09-22T07:54:58.382Z,35.00
2022-09-22T08:00:00.253Z,31.40
2022-09-22T08:05:04.168Z,31.90
2022-09-22T08:10:06.449Z,33.80
2022-09-22T08:15:08.942Z,31.50
2022-09-22T08:20:10.672Z,30.00
2022-09-22T08:25:12.786Z,30.40
2022-09-22T08:30:14.571Z,32.70
2022-09-22T08:35:16.433Z,31.10
2022-09-22T08:40:23.814Z,30.60
2022-09-22T08:45:36.441Z,33.40
2022-09-22T08:51:19.255Z,32.20
2022-09-22T08:56:43.241Z,30.40
2022-09-22T09:01:49.813Z,34.00
2022-09-22T09:07:04.095Z,33.30
2022-09-22T09:12:14.716Z,32.90
2022-09-22T09:17:35.445Z,31.70
2022-09-22T09:22:44.985Z,35.40
2022-09-22T09:28:04.685Z,42.20
2022-09-22T09:33:18.108Z,44.10
2022-09-22T09:38:30.387Z,47.80
2022-09-22T09:43:33.463Z,40.90
2022-09-22T09:48:58.682Z,49.50
2022-09-22T09:54:05.554Z,52.00
2022-09-22T09:59:30.557Z,55.90
2022-09-22T10:04:37.560Z,60.20
2022-09-22T10:09:40.819Z,63.20
2022-09-22T10:14:51.283Z,59.00
2022-09-22T10:19:53.029Z,58.00
2022-09-22T10:24:57.158Z,60.80
2022-09-22T10:30:11.319Z,61.60
2022-09-22T10:35:28.095Z,63.80
2022-09-22T10:40:31.816Z,64.20
2022-09-22T10:45:47.588Z,61.70
2022-09-22T10:50:49.298Z,63.40
2022-09-22T10:56:26.300Z,71.80
2022-09-22T11:01:46.752Z,73.70
2022-09-22T11:07:37.047Z,69.40
2022-09-22T11:13:16.545Z,69.50
2022-09-22T11:18:45.959Z,73.30
2022-09-22T11:23:57.174Z,76.30
2022-09-22T11:29:20.398Z,75.10
2022-09-22T11:34:51.260Z,73.90
2022-09-22T11:40:15.726Z,76.90
2022-09-22T11:45:35.631Z,80.70
2022-09-22T11:51:00.232Z,83.80
2022-09-22T11:56:16.794Z,83.30
2022-09-22T12:01:23.251Z,83.80
2022-09-22T12:06:36.673Z,85.30
2022-09-22T12:11:40.912Z,83.40
2022-09-22T12:17:27.160Z,83.30
2022-09-22T12:22:52.111Z,85.90
2022-09-22T12:27:58.645Z,84.70
2022-09-22T12:33:00.635Z,87.00
2022-09-22T12:38:02.675Z,84.50
2022-09-22T12:43:05.959Z,86.50
2022-09-22T12:48:22.211Z,90.50
2022-09-22T12:53:30.369Z,91.30
2022-09-22T12:58:32.161Z,92.70
2022-09-22T13:03:36.636Z,92.30
2022-09-22T13:08:38.312Z,92.40
2022-09-22T13:13:42.519Z,94.30
2022-09-22T13:18:58.717Z,93.70
2022-09-22T13:24:03.647Z,94.20
2022-09-22T13:29:20.889Z,92.60
2022-09-22T13:34:31.579Z,93.20
2022-09-22T13:39:46.242Z,95.00
2022-09-22T13:45:06.632Z,93.80
2022-09-22T13:50:13.323Z,92.90
2022-09-22T13:55:21.427Z,95.40
2022-09-22T14:00:31.402Z,95.40
2022-09-22T14:05:35.095Z,95.70
2022-09-22T14:10:37.765Z,99.90
2022-09-22T14:15:43.531Z,99.90
2022-09-22T14:20:45.932Z,99.90
2022-09-22T14:25:47.756Z,99.90
2022-09-22T14:30:50.456Z,99.90
2022-09-22T14:36:00.842Z,99.90
2022-09-22T14:41:03.151Z,99.90
2022-09-22T14:46:25.596Z,99.90
2022-09-22T14:51:27.706Z,99.90
2022-09-22T14:56:34.144Z,99.90
2022-09-22T15:01:54.700Z,99.90
2022-09-22T15:06:59.090Z,99.90
2022-09-22T15:12:02.967Z,99.90
2022-09-22T15:17:43.887Z,99.90
2022-09-22T15:22:46.361Z,99.90
2022-09-22T15:27:51.615Z,99.90
2022-09-22T15:32:53.354Z,99.90
2022-09-22T15:37:55.615Z,99.90
2022-09-22T15:43:12.249Z,99.90
2022-09-22T15:48:27.805Z,99.90
2022-09-22T15:53:30.997Z,99.90
2022-09-22T15:58:36.820Z,99.90
2022-09-22T16:03:41.206Z,99.90
2022-09-22T16:08:46.243Z,99.90
2022-09-22T16:13:48.607Z,99.90
2022-09-22T16:18:50.359Z,99.90
2022-09-22T16:24:03.395Z,99.90
2022-09-22T16:29:07.164Z,99.90
2022-09-22T16:34:09.466Z,99.90
2022-09-22T16:39:11.287Z,99.90
2022-09-22T16:44:13.444Z,99.90
2022-09-22T16:49:20.329Z,99.90
2022-09-22T16:54:22.369Z,99.90
2022-09-22T16:59:24.166Z,99.90
2022-09-22T17:04:25.986Z,99.90
2022-09-22T17:09:27.744Z,99.90
2022-09-22T17:14:30.502Z,99.90
2022-09-22T17:19:32.819Z,99.90
2022-09-22T17:24:34.543Z,99.90
2022-09-22T17:29:36.280Z,99.90
2022-09-22T17:34:38.583Z,99.90
2022-09-22T17:39:40.492Z,99.90
2022-09-22T17:44:42.251Z,99.90
2022-09-22T17:50:02.824Z,99.90
2022-09-22T17:55:12.720Z,99.90
2022-09-22T18:00:21.222Z,99.90
2022-09-22T18:05:26.673Z,99.90
2022-09-22T18:10:35.490Z,99.90
2022-09-22T18:15:37.401Z,99.90
2022-09-22T18:20:39.720Z,99.90
2022-09-22T18:25:41.550Z,99.90
2022-09-22T18:30:43.337Z,99.90
2022-09-22T18:35:47.058Z,99.90
2022-09-22T18:40:51.366Z,99.90
2022-09-22T18:45:53.231Z,99.90
2022-09-22T18:50:54.954Z,99.90
2022-09-22T18:56:07.343Z,99.90
2022-09-22T19:01:13.853Z,99.90
2022-09-22T19:06:16.331Z,99.90
2022-09-22T19:11:18.055Z,99.90
2022-09-22T19:16:21.729Z,99.90
2022-09-22T19:21:25.184Z,99.90
2022-09-22T19:26:28.283Z,99.90
2022-09-22T19:31:30.162Z,99.90
2022-09-22T19:36:32.754Z,99.90
2022-09-22T19:41:40.630Z,99.90
2022-09-22T19:46:43.489Z,99.90
2022-09-22T19:51:45.439Z,99.90
2022-09-22T19:56:48.503Z,99.90
2022-09-22T20:01:51.067Z,99.90
2022-09-22T20:06:52.931Z,99.90
2022-09-22T20:11:54.760Z,99.90
2022-09-22T20:17:03.200Z,99.90
2022-09-22T20:22:28.360Z,99.90
2022-09-22T20:27:37.208Z,99.90
2022-09-22T20:32:38.903Z,99.90
2022-09-22T20:37:42.343Z,99.90
2022-09-22T20:42:46.348Z,99.90
2022-09-22T20:47:48.569Z,99.90
2022-09-22T20:52:50.863Z,99.90
2022-09-22T20:57:52.720Z,99.90
2022-09-22T21:02:54.746Z,99.90
2022-09-22T21:08:16.547Z,99.90
2022-09-22T21:13:18.427Z,99.90
2022-09-22T21:18:24.671Z,99.90
2022-09-22T21:23:26.543Z,99.90
2022-09-22T21:28:29.893Z,99.90
2022-09-22T21:33:32.701Z,99.90
2022-09-22T21:38:36.734Z,99.90
2022-09-22T21:43:38.983Z,99.90
2022-09-22T21:48:41.719Z,99.90
2022-09-22T21:53:46.237Z,99.90
2022-09-22T21:58:50.297Z,99.90
2022-09-22T22:03:53.549Z,99.90
2022-09-22T22:09:03.363Z,99.90
2022-09-22T22:14:07.642Z,99.90
2022-09-22T22:19:11.816Z,99.90
2022-09-22T22:24:18.246Z,99.90
2022-09-22T22:29:21.382Z,99.90
2022-09-22T22:34:27.384Z,99.90
2022-09-22T22:39:29.947Z,99.90
2022-09-22T22:44:31.843Z,99.90
2022-09-22T22:49:33.666Z,99.90
2022-09-22T22:54:35.435Z,99.90
2022-09-22T22:59:37.377Z,99.90
2022-09-22T23:04:39.473Z,99.90
2022-09-22T23:09:41.197Z,99.90
2022-09-22T23:14:42.959Z,99.90
2022-09-22T23:19:45.495Z,99.90
2022-09-22T23:24:48.095Z,99.90
2022-09-22T23:29:50.459Z,99.90
2022-09-22T23:34:52.427Z,99.90
2022-09-22T23:39:54.983Z,99.90
2022-09-22T23:44:56.700Z,99.90
2022-09-22T23:50:00.338Z,99.90
2022-09-22T23:55:02.164Z,99.90
